createdAt,value
2024-02-22T00:02:08.728Z,6.55
2024-02-22T00:04:37.496Z,6.67
2024-02-22T00:07:06.489Z,6.61
2024-02-22T00:09:36.608Z,6.57
2024-02-22T00:12:07.827Z,6.66
2024-02-22T00:14:38.125Z,6.67
2024-02-22T00:17:06.803Z,6.66
2024-02-22T00:19:35.375Z,6.58
2024-02-22T00:22:04.230Z,6.51
2024-02-22T00:24:32.844Z,6.57
2024-02-22T00:27:01.589Z,6.81
2024-02-22T00:29:31.379Z,6.85
2024-02-22T00:32:00.086Z,6.93
2024-02-22T00:34:28.550Z,7.06
2024-02-22T00:36:57.642Z,7.32
2024-02-22T00:39:25.563Z,7.32
2024-02-22T00:41:53.990Z,7.27
2024-02-22T00:44:22.397Z,7.27
2024-02-22T00:46:54.370Z,7.23
2024-02-22T00:49:23.393Z,7.27
2024-02-22T00:51:51.926Z,7.29
2024-02-22T00:54:20.246Z,7.40
2024-02-22T00:56:49.290Z,7.43
2024-02-22T00:59:19.768Z,7.55
2024-02-22T01:01:48.666Z,7.51
2024-02-22T01:04:18.686Z,7.44
2024-02-22T01:06:47.102Z,7.56
2024-02-22T01:09:16.663Z,7.62
2024-02-22T01:11:45.839Z,7.56
2024-02-22T01:14:14.645Z,7.57
2024-02-22T01:16:43.489Z,7.64
2024-02-22T01:19:13.104Z,7.83
2024-02-22T01:21:42.859Z,7.97
2024-02-22T01:24:11.668Z,8.16
2024-02-22T01:26:40.030Z,8.70
2024-02-22T01:29:08.831Z,8.89
2024-02-22T01:31:37.394Z,8.96
2024-02-22T01:34:06.346Z,8.87
2024-02-22T01:36:34.818Z,8.86
2024-02-22T01:39:07.418Z,9.18
2024-02-22T01:41:35.848Z,9.24
2024-02-22T01:44:04.338Z,9.27
2024-02-22T01:46:33.981Z,9.13
2024-02-22T01:49:03.424Z,9.31
2024-02-22T01:51:32.702Z,9.39
2024-02-22T01:54:01.854Z,9.41
2024-02-22T01:56:34.047Z,9.42
2024-02-22T01:59:02.776Z,9.53
2024-02-22T02:01:32.110Z,9.50
2024-02-22T02:04:01.094Z,9.60
2024-02-22T02:06:29.849Z,9.59
2024-02-22T02:08:58.524Z,9.64
2024-02-22T02:11:26.946Z,9.69
2024-02-22T02:13:57.068Z,9.83
2024-02-22T02:16:25.618Z,9.81
2024-02-22T02:18:54.849Z,10.05
2024-02-22T02:21:32.743Z,9.97
2024-02-22T02:24:23.826Z,9.95
2024-02-22T02:26:54.632Z,10.03
2024-02-22T02:29:23.208Z,10.13
2024-02-22T02:31:51.880Z,9.98
2024-02-22T02:34:20.649Z,10.23
2024-02-22T02:36:49.157Z,10.31
2024-02-22T02:39:17.628Z,10.33
2024-02-22T02:41:46.019Z,10.26
2024-02-22T02:44:15.858Z,10.00
2024-02-22T02:46:44.779Z,9.75
2024-02-22T02:49:13.246Z,10.09
2024-02-22T02:51:42.227Z,10.00
2024-02-22T02:54:12.056Z,9.83
2024-02-22T02:56:40.457Z,9.81
2024-02-22T02:59:09.311Z,9.72
2024-02-22T03:01:39.159Z,9.56
2024-02-22T03:04:07.643Z,9.17
2024-02-22T03:06:36.140Z,9.15
2024-02-22T03:09:06.407Z,8.87
2024-02-22T03:11:35.112Z,8.54
2024-02-22T03:14:03.778Z,8.68
2024-02-22T03:16:33.810Z,8.49
2024-02-22T03:19:03.762Z,8.35
2024-02-22T03:21:32.309Z,8.39
2024-02-22T03:24:00.801Z,8.15
2024-02-22T03:26:29.322Z,8.64
2024-02-22T03:28:57.670Z,8.73
2024-02-22T03:31:26.497Z,8.68
2024-02-22T03:33:54.926Z,8.65
2024-02-22T03:36:24.745Z,8.58
2024-02-22T03:38:54.603Z,8.56
2024-02-22T03:41:26.408Z,8.50
2024-02-22T03:43:54.859Z,8.60
2024-02-22T03:46:23.989Z,8.57
2024-02-22T03:48:52.382Z,8.65
2024-02-22T03:51:20.786Z,8.67
2024-02-22T03:53:51.454Z,8.87
2024-02-22T03:56:20.054Z,8.79
2024-02-22T03:58:48.657Z,8.71
2024-02-22T04:01:17.302Z,8.73
2024-02-22T04:03:45.852Z,8.47
2024-02-22T04:06:14.816Z,8.33
2024-02-22T04:08:43.673Z,8.46
2024-02-22T04:11:13.892Z,8.24
2024-02-22T04:13:43.370Z,8.10
2024-02-22T04:16:11.938Z,8.29
2024-02-22T04:18:40.433Z,8.04
2024-02-22T04:21:08.893Z,7.89
2024-02-22T04:23:37.692Z,7.84
2024-02-22T04:26:06.539Z,7.80
2024-02-22T04:28:36.526Z,7.70
2024-02-22T04:31:06.024Z,7.62
2024-02-22T04:33:34.835Z,7.56
2024-02-22T04:36:03.394Z,7.60
2024-02-22T04:38:32.069Z,7.62
2024-02-22T04:41:01.057Z,7.52
2024-02-22T04:43:30.942Z,7.39
2024-02-22T04:46:00.875Z,7.33
2024-02-22T04:48:29.644Z,7.22
2024-02-22T04:50:58.166Z,7.26
2024-02-22T04:53:26.543Z,7.15
2024-02-22T04:55:55.249Z,7.05
2024-02-22T04:58:23.602Z,6.89
2024-02-22T05:00:52.096Z,6.88
2024-02-22T05:03:22.176Z,6.83
2024-02-22T05:05:50.744Z,6.89
2024-02-22T05:08:19.300Z,6.85
2024-02-22T05:10:47.825Z,6.87
2024-02-22T05:13:16.398Z,6.85
2024-02-22T05:15:44.928Z,6.74
2024-02-22T05:18:13.534Z,6.79
2024-02-22T05:20:43.669Z,6.83
2024-02-22T05:23:12.753Z,6.84
2024-02-22T05:25:42.805Z,6.75
2024-02-22T05:28:11.189Z,6.68
2024-02-22T05:30:39.646Z,6.75
2024-02-22T05:33:10.874Z,6.78
2024-02-22T05:35:39.726Z,6.81
2024-02-22T05:38:09.859Z,6.79
2024-02-22T05:40:39.616Z,6.73
2024-02-22T05:43:08.143Z,6.68
2024-02-22T05:45:42.807Z,6.72
2024-02-22T05:48:12.101Z,6.68
2024-02-22T05:50:40.520Z,6.64
2024-02-22T05:53:11.810Z,6.70
2024-02-22T05:55:40.297Z,6.65
2024-02-22T05:58:09.269Z,6.76
2024-02-22T06:00:38.590Z,6.69
2024-02-22T06:03:10.343Z,6.67
2024-02-22T06:05:40.280Z,6.69
2024-02-22T06:08:10.402Z,6.67
2024-02-22T06:10:38.888Z,6.68
2024-02-22T06:13:07.373Z,6.63
2024-02-22T06:15:35.718Z,6.60
2024-02-22T06:18:05.067Z,6.61
2024-02-22T06:20:33.739Z,6.55
2024-02-22T06:23:02.208Z,6.55
2024-02-22T06:25:32.366Z,6.58
2024-02-22T06:28:00.788Z,6.63
2024-02-22T06:30:29.360Z,6.61
2024-02-22T06:32:58.875Z,6.55
2024-02-22T06:35:27.326Z,6.58
2024-02-22T06:37:56.123Z,6.62
2024-02-22T06:40:24.569Z,6.65
2024-02-22T06:42:54.393Z,6.66
2024-02-22T06:45:25.057Z,6.61
2024-02-22T06:47:54.307Z,6.70
2024-02-22T06:50:23.503Z,6.69
2024-02-22T06:52:53.299Z,6.65
2024-02-22T06:55:26.066Z,6.72
2024-02-22T06:57:56.403Z,6.72
2024-02-22T07:00:25.230Z,6.70
2024-02-22T07:02:53.947Z,6.65
2024-02-22T07:05:22.660Z,6.66
2024-02-22T07:07:51.160Z,6.66
2024-02-22T07:10:19.475Z,6.67
2024-02-22T07:12:47.821Z,6.65
2024-02-22T07:15:18.141Z,6.63
2024-02-22T07:17:47.151Z,6.62
2024-02-22T07:20:16.347Z,6.63
2024-02-22T07:22:46.519Z,6.63
2024-02-22T07:25:17.654Z,6.64
2024-02-22T07:27:46.252Z,6.62
2024-02-22T07:30:15.622Z,6.58
2024-02-22T07:32:45.486Z,6.55
2024-02-22T07:35:14.771Z,6.52
2024-02-22T07:37:43.903Z,6.60
2024-02-22T07:40:12.822Z,6.59
2024-02-22T07:42:42.502Z,6.57
2024-02-22T07:45:11.683Z,6.56
2024-02-22T07:47:40.574Z,6.59
2024-02-22T07:50:12.356Z,6.57
2024-02-22T07:52:42.105Z,6.54
2024-02-22T07:55:11.104Z,6.52
2024-02-22T07:57:39.605Z,6.54
2024-02-22T08:00:10.213Z,6.51
2024-02-22T08:02:38.748Z,6.54
2024-02-22T08:05:10.426Z,6.59
2024-02-22T08:07:41.648Z,6.59
2024-02-22T08:10:10.837Z,6.61
2024-02-22T08:12:39.228Z,6.62
2024-02-22T08:15:09.431Z,6.66
2024-02-22T08:17:40.594Z,6.63
2024-02-22T08:20:11.347Z,6.63
2024-02-22T08:22:41.033Z,6.63
2024-02-22T08:25:10.885Z,6.63
2024-02-22T08:27:46.595Z,6.62
2024-02-22T08:30:22.953Z,6.59
2024-02-22T08:32:51.386Z,6.56
2024-02-22T08:35:20.169Z,6.56
2024-02-22T08:37:49.947Z,6.55
2024-02-22T08:40:30.321Z,6.55
2024-02-22T08:43:04.145Z,6.53
2024-02-22T08:45:34.606Z,6.50
2024-02-22T08:48:03.615Z,6.49
2024-02-22T08:50:32.436Z,6.47
2024-02-22T08:53:02.347Z,6.45
2024-02-22T08:55:31.229Z,6.43
2024-02-22T08:58:01.719Z,6.44
2024-02-22T09:00:30.884Z,6.46
2024-02-22T09:02:59.347Z,6.46
2024-02-22T09:05:29.184Z,6.46
2024-02-22T09:12:31.003Z,6.45
2024-02-22T09:14:59.282Z,6.49
2024-02-22T09:17:28.107Z,6.49
2024-02-22T09:19:56.788Z,6.52
2024-02-22T09:22:25.332Z,6.53
2024-02-22T09:24:53.700Z,6.54
2024-02-22T09:27:22.031Z,6.57
2024-02-22T09:29:51.898Z,6.54
2024-02-22T09:32:20.812Z,6.56
2024-02-22T09:34:49.478Z,6.58
2024-02-22T09:37:17.881Z,6.58
2024-02-22T09:39:47.739Z,6.60
2024-02-22T09:42:16.384Z,6.60
2024-02-22T09:44:46.084Z,6.65
2024-02-22T09:47:19.153Z,6.68
2024-02-22T09:49:47.922Z,6.67
2024-02-22T09:52:17.001Z,6.66
2024-02-22T09:54:46.546Z,6.69
2024-02-22T09:57:15.671Z,6.74
2024-02-22T09:59:51.815Z,6.79
2024-02-22T10:02:23.654Z,6.89
2024-02-22T10:04:54.139Z,6.97
2024-02-22T10:07:26.696Z,6.98
2024-02-22T10:09:56.244Z,7.05
2024-02-22T10:12:28.033Z,7.18
2024-02-22T10:14:57.657Z,7.17
2024-02-22T10:17:30.825Z,7.22
2024-02-22T10:20:01.410Z,7.19
2024-02-22T10:22:32.614Z,7.25
2024-02-22T10:25:10.205Z,7.31
2024-02-22T10:27:42.599Z,7.34
2024-02-22T10:30:13.077Z,7.34
2024-02-22T10:32:46.446Z,7.40
2024-02-22T10:35:16.455Z,7.37
2024-02-22T10:37:46.163Z,7.53
2024-02-22T10:40:14.585Z,7.58
2024-02-22T10:42:44.590Z,7.61
2024-02-22T10:45:13.505Z,7.66
2024-02-22T10:47:43.563Z,7.71
2024-02-22T10:50:16.491Z,7.71
2024-02-22T10:52:46.746Z,7.68
2024-02-22T10:55:17.846Z,7.66
2024-02-22T10:57:49.814Z,7.62
2024-02-22T11:00:18.526Z,7.61
2024-02-22T11:02:49.757Z,7.59
2024-02-22T11:05:19.813Z,7.66
2024-02-22T11:07:51.664Z,7.63
2024-02-22T11:10:22.338Z,7.66
2024-02-22T11:12:53.903Z,7.70
2024-02-22T11:15:35.970Z,7.73
2024-02-22T11:18:06.575Z,7.83
2024-02-22T11:20:36.843Z,7.94
2024-02-22T11:23:15.214Z,7.99
2024-02-22T11:25:44.066Z,8.09
2024-02-22T11:28:13.347Z,8.12
2024-02-22T11:30:42.645Z,8.11
2024-02-22T11:33:14.160Z,8.15
2024-02-22T11:35:42.901Z,8.19
2024-02-22T11:38:11.360Z,8.18
2024-02-22T11:40:39.902Z,8.21
2024-02-22T11:43:08.595Z,8.13
2024-02-22T11:45:37.404Z,8.16
2024-02-22T11:48:08.257Z,8.23
2024-02-22T11:50:38.205Z,8.26
2024-02-22T11:53:06.851Z,8.36
2024-02-22T11:55:36.179Z,8.44
2024-02-22T11:58:04.933Z,8.36
2024-02-22T12:00:33.349Z,8.51
2024-02-22T12:03:02.293Z,8.56
2024-02-22T12:05:31.196Z,8.55
2024-02-22T12:08:01.707Z,8.58
2024-02-22T12:10:30.639Z,8.72
2024-02-22T12:12:59.351Z,8.93
2024-02-22T12:15:28.332Z,9.11
2024-02-22T12:17:57.142Z,9.09
2024-02-22T12:20:27.556Z,9.24
2024-02-22T12:22:56.530Z,9.24
2024-02-22T12:25:26.822Z,9.28
2024-02-22T12:27:55.906Z,9.45
2024-02-22T12:30:24.981Z,9.34
2024-02-22T12:32:55.440Z,9.23
2024-02-22T12:35:24.163Z,9.36
2024-02-22T12:37:53.126Z,9.24
2024-02-22T12:40:21.625Z,9.17
2024-02-22T12:42:56.151Z,9.16
2024-02-22T12:45:24.780Z,9.14
2024-02-22T12:47:53.405Z,9.07
2024-02-22T12:50:22.556Z,9.09
2024-02-22T12:52:51.598Z,9.03
2024-02-22T12:55:19.184Z,9.02
2024-02-22T12:57:47.698Z,8.93
2024-02-22T13:00:18.260Z,8.89
2024-02-22T13:02:47.358Z,8.90
2024-02-22T13:05:15.912Z,8.92
2024-02-22T13:07:44.443Z,8.90
2024-02-22T13:10:12.939Z,8.92
2024-02-22T13:12:41.506Z,8.98
2024-02-22T13:15:11.334Z,9.03
2024-02-22T13:17:41.235Z,9.10
2024-02-22T13:20:13.613Z,9.12
2024-02-22T13:22:42.310Z,9.16
2024-02-22T13:25:12.220Z,9.19
2024-02-22T13:27:40.698Z,9.22
2024-02-22T13:30:15.166Z,9.20
2024-02-22T13:32:46.578Z,9.26
2024-02-22T13:35:15.719Z,9.26
2024-02-22T13:37:44.248Z,9.28
2024-02-22T13:40:16.022Z,9.29
2024-02-22T13:42:45.201Z,9.27
2024-02-22T13:45:13.579Z,9.29
2024-02-22T13:47:42.184Z,9.25
2024-02-22T13:50:12.692Z,9.23
2024-02-22T13:52:43.254Z,9.25
2024-02-22T13:55:12.880Z,9.22
2024-02-22T13:57:41.832Z,9.22
2024-02-22T14:00:12.261Z,9.20
2024-02-22T14:02:40.825Z,9.19
2024-02-22T14:05:12.625Z,9.24
2024-02-22T14:07:43.521Z,9.25
2024-02-22T14:10:12.743Z,9.30
2024-02-22T14:12:41.124Z,9.29
2024-02-22T14:15:10.983Z,9.27
2024-02-22T14:17:44.006Z,9.35
2024-02-22T14:20:15.090Z,9.32
2024-02-22T14:22:43.768Z,9.32
2024-02-22T14:25:12.286Z,9.31
2024-02-22T14:27:41.025Z,9.27
2024-02-22T14:30:10.830Z,9.20
2024-02-22T14:32:39.994Z,9.11
2024-02-22T14:35:09.871Z,9.09
2024-02-22T14:37:39.889Z,9.05
2024-02-22T14:40:13.008Z,9.02
2024-02-22T14:42:42.642Z,8.98
2024-02-22T14:45:11.729Z,8.93
2024-02-22T14:47:40.240Z,8.89
2024-02-22T14:50:10.878Z,8.85
2024-02-22T14:52:41.529Z,8.79
2024-02-22T14:55:10.955Z,8.75
2024-02-22T14:57:39.403Z,8.70
2024-02-22T15:00:10.169Z,8.67
2024-02-22T15:02:39.178Z,8.61
2024-02-22T15:05:08.628Z,8.57
2024-02-22T15:07:37.201Z,8.56
2024-02-22T15:10:08.274Z,8.55
2024-02-22T15:12:36.731Z,8.53
2024-02-22T15:15:09.852Z,8.51
2024-02-22T15:17:39.165Z,8.48
2024-02-22T15:20:10.045Z,8.47
2024-02-22T15:22:38.680Z,8.43
2024-02-22T15:25:11.894Z,8.43
2024-02-22T15:27:43.983Z,8.41
2024-02-22T15:30:14.412Z,8.44
2024-02-22T15:32:43.092Z,8.39
2024-02-22T15:35:11.926Z,8.44
2024-02-22T15:37:40.560Z,8.39
2024-02-22T15:40:13.378Z,8.32
2024-02-22T15:42:41.779Z,8.26
2024-02-22T15:45:11.177Z,8.25
2024-02-22T15:47:39.704Z,8.22
2024-02-22T15:50:09.637Z,8.21
2024-02-22T15:52:38.331Z,8.21
2024-02-22T15:55:10.033Z,8.19
2024-02-22T15:57:38.934Z,8.22
2024-02-22T16:00:09.437Z,8.23
2024-02-22T16:02:38.608Z,8.21
2024-02-22T16:05:09.148Z,8.20
2024-02-22T16:07:41.235Z,8.20
2024-02-22T16:10:11.963Z,8.16
2024-02-22T16:12:42.327Z,8.16
2024-02-22T16:15:12.802Z,8.13
2024-02-22T16:17:41.952Z,8.11
2024-02-22T16:20:12.132Z,8.07
2024-02-22T16:22:41.212Z,8.05
2024-02-22T16:25:12.188Z,8.08
2024-02-22T16:27:42.941Z,8.07
2024-02-22T16:30:12.555Z,8.02
2024-02-22T16:32:42.246Z,7.97
2024-02-22T16:35:15.553Z,7.97
2024-02-22T16:37:45.856Z,7.95
2024-02-22T16:40:16.236Z,7.97
2024-02-22T16:42:46.401Z,7.98
2024-02-22T16:45:14.967Z,7.94
2024-02-22T16:47:46.002Z,7.93
2024-02-22T16:50:15.420Z,7.90
2024-02-22T16:52:44.278Z,7.93
2024-02-22T16:55:12.817Z,7.93
2024-02-22T16:57:42.796Z,7.92
2024-02-22T17:00:13.353Z,7.88
2024-02-22T17:02:43.168Z,7.89
2024-02-22T17:05:12.057Z,7.87
2024-02-22T17:07:41.274Z,7.83
2024-02-22T17:10:11.677Z,7.82
2024-02-22T17:12:40.444Z,7.82
2024-02-22T17:15:11.830Z,7.83
2024-02-22T17:17:41.024Z,7.80
2024-02-22T17:20:11.031Z,7.77
2024-02-22T17:22:39.556Z,7.78
2024-02-22T17:25:11.329Z,7.76
2024-02-22T17:27:40.138Z,7.77
2024-02-22T17:30:13.029Z,7.78
2024-02-22T17:32:42.511Z,7.80
2024-02-22T17:35:12.536Z,7.79
2024-02-22T17:37:41.026Z,7.78
2024-02-22T17:40:12.741Z,7.82
2024-02-22T17:42:41.745Z,7.85
2024-02-22T17:45:12.254Z,7.91
2024-02-22T17:47:41.058Z,7.88
2024-02-22T17:50:10.360Z,7.84
2024-02-22T17:52:39.040Z,7.93
2024-02-22T17:55:11.908Z,7.92
2024-02-22T17:57:41.892Z,7.93
2024-02-22T18:00:13.777Z,7.93
2024-02-22T18:02:44.302Z,7.90
2024-02-22T18:05:14.678Z,7.86
2024-02-22T18:07:44.141Z,7.85
2024-02-22T18:10:12.742Z,7.84
2024-02-22T18:12:41.440Z,7.84
2024-02-22T18:15:12.488Z,7.83
2024-02-22T18:17:42.046Z,7.81
2024-02-22T18:20:12.089Z,7.78
2024-02-22T18:22:40.690Z,7.76
2024-02-22T18:25:10.107Z,7.78
2024-02-22T18:27:38.474Z,7.76
2024-02-22T18:30:10.391Z,7.79
2024-02-22T18:32:40.577Z,7.80
2024-02-22T18:35:10.200Z,7.79
2024-02-22T18:37:42.257Z,7.78
2024-02-22T18:40:12.844Z,7.76
2024-02-22T18:42:43.647Z,7.74
2024-02-22T18:45:14.777Z,7.73
2024-02-22T18:47:44.957Z,7.71
2024-02-22T18:50:13.707Z,7.72
2024-02-22T18:52:42.224Z,7.72
2024-02-22T18:55:10.860Z,7.69
2024-02-22T18:57:39.560Z,7.70
2024-02-22T19:00:12.723Z,7.70
2024-02-22T19:02:41.408Z,7.72
2024-02-22T19:05:11.600Z,7.70
2024-02-22T19:07:40.514Z,7.69
2024-02-22T19:10:10.526Z,7.70
2024-02-22T19:12:39.401Z,7.70
2024-02-22T19:15:10.139Z,7.69
2024-02-22T19:17:39.586Z,7.64
2024-02-22T19:20:16.964Z,7.60
2024-02-22T19:22:46.504Z,7.59
2024-02-22T19:25:15.313Z,7.55
2024-02-22T19:27:46.735Z,7.52
2024-02-22T19:30:15.711Z,7.55
2024-02-22T19:32:45.809Z,7.54
2024-02-22T19:35:20.317Z,7.56
2024-02-22T19:37:51.876Z,7.54
2024-02-22T19:40:20.513Z,7.54
2024-02-22T19:42:48.989Z,7.56
2024-02-22T19:45:18.278Z,7.52
2024-02-22T19:47:47.188Z,7.49
2024-02-22T19:50:17.168Z,7.49
2024-02-22T19:52:46.144Z,7.48
2024-02-22T19:55:15.718Z,7.50
2024-02-22T19:57:44.640Z,7.47
2024-02-22T20:00:14.817Z,7.47
2024-02-22T20:02:44.213Z,7.49
2024-02-22T20:05:12.662Z,7.50
2024-02-22T20:07:42.524Z,7.47
2024-02-22T20:10:11.883Z,7.51
2024-02-22T20:12:40.297Z,7.50
2024-02-22T20:15:10.318Z,7.49
2024-02-22T20:17:39.005Z,7.48
2024-02-22T20:20:09.396Z,7.47
2024-02-22T20:22:37.704Z,7.47
2024-02-22T20:25:13.640Z,7.46
2024-02-22T20:27:42.324Z,7.46
2024-02-22T20:30:12.972Z,7.45
2024-02-22T20:32:41.358Z,7.41
2024-02-22T20:35:21.651Z,7.40
2024-02-22T20:37:54.274Z,7.41
2024-02-22T20:40:24.204Z,7.39
2024-02-22T20:42:53.186Z,7.38
2024-02-22T20:45:21.839Z,7.38
2024-02-22T20:47:50.217Z,7.36
2024-02-22T20:50:19.009Z,7.35
2024-02-22T20:52:47.721Z,7.34
2024-02-22T20:55:16.238Z,7.34
2024-02-22T20:57:46.100Z,7.34
2024-02-22T21:00:15.919Z,7.38
2024-02-22T21:02:44.601Z,7.34
2024-02-22T21:05:13.106Z,7.37
2024-02-22T21:07:43.186Z,7.39
2024-02-22T21:10:12.717Z,7.41
2024-02-22T21:12:41.164Z,7.44
2024-02-22T21:15:12.022Z,7.41
2024-02-22T21:17:41.632Z,7.41
2024-02-22T21:20:12.251Z,7.40
2024-02-22T21:22:40.770Z,7.35
2024-02-22T21:25:09.531Z,7.30
2024-02-22T21:27:38.393Z,7.27
2024-02-22T21:30:08.682Z,7.31
2024-02-22T21:32:39.121Z,7.33
2024-02-22T21:35:10.477Z,7.31
2024-02-22T21:37:39.271Z,7.29
2024-02-22T21:40:11.160Z,7.29
2024-02-22T21:42:39.880Z,7.32
2024-02-22T21:45:10.186Z,7.33
2024-02-22T21:47:40.478Z,7.35
2024-02-22T21:50:10.407Z,7.36
2024-02-22T21:52:39.216Z,7.39
2024-02-22T21:55:09.528Z,7.41
2024-02-22T21:57:38.013Z,7.42
2024-02-22T22:00:08.641Z,7.51
2024-02-22T22:02:42.327Z,7.61
2024-02-22T22:05:11.881Z,7.65
2024-02-22T22:07:40.841Z,7.68
2024-02-22T22:10:12.155Z,7.71
2024-02-22T22:12:43.106Z,7.77
2024-02-22T22:15:12.581Z,7.85
2024-02-22T22:17:42.401Z,7.88
2024-02-22T22:20:12.943Z,7.93
2024-02-22T22:22:41.316Z,7.89
2024-02-22T22:25:10.000Z,7.87
2024-02-22T22:27:38.535Z,7.88
2024-02-22T22:30:08.706Z,7.84
2024-02-22T22:32:37.229Z,7.83
2024-02-22T22:35:08.689Z,7.78
2024-02-22T22:37:37.120Z,7.79
2024-02-22T22:40:06.946Z,7.75
2024-02-22T22:42:35.560Z,7.70
2024-02-22T22:45:04.058Z,7.68
2024-02-22T22:47:32.799Z,7.63
2024-02-22T22:50:01.493Z,7.62
2024-02-22T22:52:31.336Z,7.53
2024-02-22T22:54:59.809Z,7.29
2024-02-22T22:57:28.308Z,7.20
2024-02-22T22:59:57.575Z,7.18
2024-02-22T23:02:27.685Z,7.06
2024-02-22T23:04:56.270Z,7.10
2024-02-22T23:07:24.722Z,7.11
2024-02-22T23:09:54.497Z,7.04
2024-02-22T23:12:23.107Z,7.03
2024-02-22T23:14:51.618Z,7.07
2024-02-22T23:17:20.209Z,7.06
2024-02-22T23:19:48.742Z,7.11
2024-02-22T23:22:17.322Z,7.18
2024-02-22T23:24:45.936Z,7.11
2024-02-22T23:27:15.704Z,7.16
2024-02-22T23:29:44.050Z,7.04
2024-02-22T23:32:12.490Z,7.11
2024-02-22T23:34:41.816Z,7.06
2024-02-22T23:37:10.242Z,7.02
2024-02-22T23:39:39.788Z,7.10
2024-02-22T23:42:09.006Z,7.10
2024-02-22T23:44:39.035Z,7.20
2024-02-22T23:47:07.924Z,7.27
2024-02-22T23:49:36.378Z,7.26
2024-02-22T23:52:05.270Z,7.23
2024-02-22T23:54:35.607Z,7.24
2024-02-22T23:57:04.161Z,7.27
2024-02-22T23:59:31.716Z,7.24
